Bei Facebook empfehlenBei Twitter postenGoogle plusPinterest

Das Wetter im Erzgebirge am 27.12.2016

Wetter und Klima am 27.12.2016 Holzhau im Erzgebirge (630m ü.NN)
Letzte gemessene Temperatur und Uhrzeit der Messung23:45:00 Uhr2.80 °C
Temperatur (Maximum / Höchstwert) und Uhrzeit der Messung23:45:00 Uhr2.80 °C
Temperatur (Minimum / Tiefstwert) und Uhrzeit der Messung02:45:00-0.20 °C
Errechneter Absolutwert der Temperaturschwankungen zwischen Tmin und Tmax des Tages3.00 K
Errechnete Tagesmitteltemperatur1.23958 °C
Gesamt - Niederschlag des Tages (in flüssiger Form)4.14 Liter / m²
Luftdruck (Maximum / Höchstwert) und Zeitpunkt der Messung22:00:00 Uhr1029.30 hPa
Luftdruck (Minimum / Tiefstwert) und Zeitpunkt der Messung06:30:00 Uhr1021.90 hPa
Errechneter Absolutwert der Luftdruckschwankungen des Tages7.40 hPa
Höchste gemessene Windgeschwindigkeit und Uhrzeit der Messung23:45:00 Uhr0.00 km/h
Errechnete Windhäufigkeit in Relation zu den Messwerten des Tages0.00000 %
Niedrigste Windkühle (Windchill) und Zeitpunkt der Messung02:45:00 Uhr-0.20 °C
Taupunkt (Maximum / Höchstwert) und Uhrzeit der Messung23:45:00 Uhr2.20 °C
Taupunkt (Minimum / Tiefstwert) und Uhrzeit der Messung02:45:00-2.50 °C
Anzahl der automatisch eingelesenen Messwerte 96

Detaillierte Wetter- und Klima- Messwerte für den 27.12.2016 in Holzhau im Erzgebirge (630m ü.NN)
ZeitTemperaturLuftdruckRel. LuftfeuchteWindWindrichtungWindchillTaupunktNiederschlag l/m²
23:45:002.80 °C1029.10 hPa96.00 %2.20 °C4.14
23:30:002.80 °C1029.20 hPa96.00 %2.20 °C3.62
23:15:002.70 °C1028.90 hPa96.00 %2.10 °C3.11
23:00:002.60 °C1029.10 hPa96.00 %2.00 °C3.11
22:45:002.40 °C1029.10 hPa96.00 %1.80 °C2.59
22:30:002.30 °C1029.10 hPa96.00 %1.70 °C2.07
22:15:002.40 °C1029.20 hPa96.00 %1.80 °C2.07
22:00:002.50 °C1029.30 hPa96.00 %1.90 °C2.07
21:45:002.50 °C1029.30 hPa96.00 %1.90 °C2.07
21:30:002.50 °C1029.20 hPa96.00 %1.90 °C2.07
21:15:002.40 °C1029.10 hPa96.00 %1.80 °C2.07
21:00:002.40 °C1028.90 hPa96.00 %1.80 °C2.07
20:45:002.40 °C1028.90 hPa96.00 %1.80 °C2.07
20:30:002.30 °C1029.00 hPa96.00 %1.70 °C2.07
20:15:002.10 °C1028.90 hPa96.00 %1.50 °C2.07
20:00:001.90 °C1028.80 hPa95.00 %1.20 °C2.07
19:45:001.80 °C1028.70 hPa95.00 %1.10 °C2.07
19:30:001.90 °C1028.80 hPa94.00 %1.00 °C1.55
19:15:002.20 °C1028.70 hPa95.00 %1.50 °C1.03
19:00:002.10 °C1028.70 hPa95.00 %1.40 °C1.03
18:45:002.10 °C1028.60 hPa95.00 %1.40 °C1.03
18:30:001.90 °C1028.80 hPa95.00 %1.20 °C1.03
18:15:001.90 °C1028.40 hPa95.00 %1.20 °C1.03
18:00:001.90 °C1027.90 hPa95.00 %1.20 °C1.03
17:45:001.90 °C1027.80 hPa95.00 %1.20 °C1.03
17:30:001.90 °C1027.60 hPa95.00 %1.20 °C1.03
17:15:001.90 °C1027.50 hPa95.00 %1.20 °C1.03
17:00:001.80 °C1027.30 hPa95.00 %1.10 °C1.03
16:45:001.60 °C1026.80 hPa95.00 %0.90 °C1.03
16:30:001.40 °C1026.60 hPa95.00 %0.70 °C1.03
16:15:001.30 °C1026.70 hPa95.00 %0.60 °C1.03
16:00:001.30 °C1026.60 hPa95.00 %0.60 °C0.52
15:45:001.30 °C1026.50 hPa95.00 %0.60 °C0.52
15:30:001.20 °C1026.60 hPa95.00 %0.50 °C0.52
15:15:001.30 °C1026.20 hPa95.00 %0.60 °C0.52
15:00:001.30 °C1025.80 hPa95.00 %0.60 °C0.52
14:45:001.30 °C1025.60 hPa95.00 %0.60 °C0.52
14:30:001.20 °C1025.20 hPa95.00 %0.50 °C 
14:15:001.10 °C1025.20 hPa95.00 %0.40 °C 
14:00:001.00 °C1025.10 hPa95.00 %0.30 °C 
13:45:000.90 °C1025.30 hPa95.00 %0.20 °C 
13:30:000.90 °C1025.20 hPa95.00 %0.20 °C 
13:15:000.90 °C1025.10 hPa95.00 %0.20 °C 
13:00:000.90 °C1024.70 hPa94.00 %0.00 °C 
12:45:000.80 °C1024.90 hPa94.00 %-0.10 °C 
12:30:001.00 °C1024.60 hPa93.00 %0.00 °C 
12:15:001.00 °C1024.70 hPa93.00 %0.00 °C 
12:00:000.90 °C1024.50 hPa93.00 %-0.10 °C 
11:45:000.90 °C1024.60 hPa93.00 %-0.10 °C 
11:30:000.80 °C1024.70 hPa93.00 %-0.20 °C 
11:15:000.80 °C1024.40 hPa92.00 %-0.30 °C 
11:00:000.70 °C1024.10 hPa92.00 %-0.40 °C 
10:45:000.80 °C1024.00 hPa91.00 %-0.50 °C 
10:30:000.90 °C1024.00 hPa91.00 %-0.40 °C 
10:15:001.10 °C1023.60 hPa90.00 %-0.40 °C 
10:00:000.90 °C1023.30 hPa89.00 %-0.70 °C 
09:45:001.10 °C1023.40 hPa88.00 %-0.70 °C 
09:30:001.30 °C1022.80 hPa87.00 %-0.60 °C 
09:15:001.30 °C1022.70 hPa87.00 %-0.60 °C 
09:00:001.30 °C1022.70 hPa87.00 %-0.60 °C 
08:45:001.30 °C1023.00 hPa87.00 %-0.60 °C 
08:30:001.30 °C1022.90 hPa87.00 %-0.60 °C 
08:15:001.30 °C1022.90 hPa87.00 %-0.60 °C 
08:00:001.30 °C1022.50 hPa86.00 %-0.80 °C 
07:45:001.30 °C1022.30 hPa87.00 %-0.60 °C 
07:30:001.10 °C1022.20 hPa87.00 %-0.80 °C 
07:15:001.10 °C1022.30 hPa87.00 %-0.80 °C 
07:00:001.10 °C1022.20 hPa87.00 %-0.80 °C 
06:45:001.00 °C1022.00 hPa87.00 %-0.90 °C 
06:30:000.90 °C1021.90 hPa86.00 %-1.20 °C 
06:15:000.90 °C1022.00 hPa86.00 %-1.20 °C 
06:00:000.90 °C1022.10 hPa86.00 %-1.20 °C 
05:45:000.80 °C1022.20 hPa87.00 %-1.10 °C 
05:30:000.80 °C1021.90 hPa87.00 %-1.10 °C 
05:15:000.70 °C1022.10 hPa87.00 %-1.20 °C 
05:00:000.60 °C1022.50 hPa87.00 %-1.30 °C 
04:45:000.60 °C1022.60 hPa87.00 %-1.30 °C 
04:30:000.50 °C1022.40 hPa87.00 %-1.40 °C 
04:15:000.40 °C1022.70 hPa87.00 %-1.50 °C 
04:00:000.40 °C1022.50 hPa87.00 %-1.50 °C 
03:45:000.40 °C1022.60 hPa87.00 %-1.50 °C 
03:30:000.20 °C1022.40 hPa87.00 %-1.70 °C 
03:15:000.10 °C1022.40 hPa87.00 %-1.80 °C 
03:00:00-0.10 °C1022.50 hPa87.00 %-2.20 °C 
02:45:00-0.20 °C1022.40 hPa86.00 %-2.50 °C 
02:30:00-0.10 °C1022.40 hPa86.00 %-2.40 °C 
02:15:000.10 °C1022.60 hPa86.00 %-2.00 °C 
02:00:000.20 °C1022.50 hPa86.00 %-1.90 °C 
01:45:000.20 °C1022.60 hPa86.00 %-1.90 °C 
01:30:000.30 °C1022.60 hPa86.00 %-1.80 °C 
01:15:000.40 °C1022.50 hPa86.00 %-1.70 °C 
01:00:000.40 °C1022.60 hPa86.00 %-1.70 °C 
00:45:000.50 °C1022.50 hPa86.00 %-1.60 °C 
00:30:000.50 °C1022.60 hPa86.00 %-1.60 °C 
00:15:000.50 °C1022.50 hPa86.00 %-1.60 °C 
00:00:000.50 °C1022.40 hPa87.00 %-1.40 °C 

Permanenter Link zu dieser Seite: Wetter im Erzgebirge am 27.12.2016
Performance-Info: Die Erstellung der Seite / Statistik(en) / Tabelle(n) erforderte 5 Datenbankserver-Abfrage(n) und dauerte 100 Millisekunden. (Dieser Messwert ist von der Gesamt-Auslastung des Servers abhängig.)
Erzgebirge - Wetter | Erzgebirge - Wetter (Mobilgeräte) | Komplette Klimadatenbank